Time;durP1;ratioP1;P1;durP2;ratioP2;P2;SDS_P1;SDS_P2;PMS_P1;PMS_P2;Temp;Humidity;BMP_temperature;BMP_pressure;BME280_temperature;BME280_humidity;BME280_pressure;Samples;Min_cycle;Max_cycle;Signal;HPM_P1;HPM_P2
2022/11/18 14:12:31;;;;;;;11.73;11.02;;;;;;;-143.83;100.00;62900.06;4834248;29;1903485;-72
2022/11/18 14:15:15;;;;;;;11.30;10.70;;;;;;;-143.83;100.00;62900.06;4905961;29;20555;-68
2022/11/18 14:17:55;;;;;;;11.90;11.20;;;;;;;-143.83;100.00;62900.06;4905953;29;20087;-68
2022/11/18 14:23:15;;;;;;;14.25;13.35;;;;;;;-143.83;100.00;62900.06;4971348;23;20434;-76
2022/11/18 14:25:44;;;;;;;11.48;10.88;;;;;;;-143.83;100.00;62900.06;4925055;28;20086;-75
2022/11/18 14:28:37;;;;;;;12.45;11.75;;;;;;;-143.83;100.00;62900.06;4917425;29;21549;-76
2022/11/18 14:31:23;;;;;;;14.30;13.40;;;;;;;-143.83;100.00;62900.06;4920931;29;20108;-75
2022/11/18 14:34:22;;;;;;;11.80;11.15;;;;;;;-143.83;100.00;62900.06;4920791;29;20091;-73
2022/11/18 14:36:49;;;;;;;11.13;10.52;;;;;;;-143.83;100.00;62900.06;4927812;29;20098;-74
2022/11/18 14:39:27;;;;;;;11.90;11.23;;;;;;;-143.83;100.00;62900.06;4924970;29;20028;-73
2022/11/18 14:41:53;;;;;;;12.68;11.95;;;;;;;-143.83;100.00;62900.06;4923185;29;20106;-72
2022/11/18 14:44:21;;;;;;;12.25;11.55;;;;;;;-143.83;100.00;62900.06;4926459;29;20031;-73
2022/11/18 14:46:52;;;;;;;11.52;10.93;;;;;;;-143.83;100.00;62900.06;4924463;29;20112;-73
2022/11/18 14:49:23;;;;;;;10.80;10.23;;;;;;;-143.83;100.00;62900.06;4921616;29;20106;-76
2022/11/18 14:51:53;;;;;;;12.63;11.88;;;;;;;-143.83;100.00;62900.06;4905534;29;20590;-76
2022/11/18 14:54:22;;;;;;;11.70;11.00;;;;;;;-143.83;100.00;62900.06;4908047;29;20038;-76
2022/11/18 14:56:49;;;;;;;12.25;11.55;;;;;;;-143.83;100.00;62900.06;4923486;29;20646;-76
2022/11/18 14:59:18;;;;;;;11.30;10.70;;;;;;;-143.83;100.00;62900.06;4925342;29;20024;-77
2022/11/18 15:01:44;;;;;;;10.52;10.02;;;;;;;-143.83;100.00;62900.06;4907638;29;20044;-71
2022/11/18 15:04:11;;;;;;;11.10;10.50;;;;;;;-143.83;100.00;62900.06;4929103;29;20060;-74
2022/11/18 15:06:38;;;;;;;10.52;10.02;;;;;;;-143.83;100.00;62900.06;4925360;29;20183;-74
2022/11/18 15:09:06;;;;;;;11.13;10.52;;;;;;;-143.83;100.00;62900.06;4926402;29;20032;-75
2022/11/18 15:11:32;;;;;;;12.52;11.82;;;;;;;-143.83;100.00;62900.06;4913699;29;20343;-78
2022/11/18 15:13:59;;;;;;;10.60;10.07;;;;;;;-143.83;100.00;62900.06;4928774;29;20059;-78
2022/11/18 15:16:27;;;;;;;11.35;10.75;;;;;;;-143.83;100.00;62900.06;4932805;29;20514;-75
2022/11/18 15:18:55;;;;;;;12.88;12.10;;;;;;;-143.83;100.00;62900.06;4929351;29;20661;-78
2022/11/18 15:21:23;;;;;;;11.23;10.63;;;;;;;-143.83;100.00;62900.06;4923565;29;20028;-78
2022/11/18 15:23:49;;;;;;;10.80;10.23;;;;;;;-143.83;100.00;62900.06;4910514;29;20499;-77
2022/11/18 15:26:22;;;;;;;11.27;10.68;;;;;;;-143.83;100.00;62900.06;4931874;29;20158;-78
2022/11/18 15:28:50;;;;;;;10.05;9.55;;;;;;;-143.83;100.00;62900.06;4930259;29;20028;-78
2022/11/18 15:31:16;;;;;;;11.05;10.45;;;;;;;-143.83;100.00;62900.06;4929321;29;20428;-73
2022/11/18 15:33:44;;;;;;;10.18;9.68;;;;;;;-143.83;100.00;62900.06;4927075;29;20035;-76
2022/11/18 15:36:16;;;;;;;10.48;9.98;;;;;;;-143.83;100.00;62900.06;4931083;29;20038;-75
2022/11/18 15:38:42;;;;;;;10.52;10.02;;;;;;;-143.83;100.00;62900.06;4925020;29;20114;-76
2022/11/18 15:41:20;;;;;;;10.68;10.18;;;;;;;-143.83;100.00;62900.06;4927167;29;20059;-75
2022/11/18 15:43:46;;;;;;;10.07;9.57;;;;;;;-143.83;100.00;62900.06;4928125;29;20515;-76
2022/11/18 15:46:13;;;;;;;10.48;9.98;;;;;;;-143.83;100.00;62900.06;4909409;29;20118;-80
2022/11/18 15:48:39;;;;;;;10.45;9.95;;;;;;;-143.83;100.00;62900.06;4913025;29;20031;-76
2022/11/18 15:51:05;;;;;;;10.75;10.18;;;;;;;-143.83;100.00;62900.06;4921149;29;20369;-76
2022/11/18 15:53:31;;;;;;;10.02;9.52;;;;;;;-143.83;100.00;62900.06;4922176;29;20030;-76
2022/11/18 15:56:22;;;;;;;10.00;9.50;;;;;;;-143.83;100.00;62900.06;4926169;29;20031;-76
2022/11/18 15:59:00;;;;;;;10.93;10.32;;;;;;;-143.83;100.00;62900.06;4923172;29;20107;-76
2022/11/18 16:01:31;;;;;;;11.07;10.48;;;;;;;-143.83;100.00;62900.06;4909209;29;20079;-75
2022/11/18 16:03:56;;;;;;;10.40;9.90;;;;;;;-143.83;100.00;62900.06;4927675;29;20115;-75
2022/11/18 16:06:23;;;;;;;11.45;10.85;;;;;;;-143.83;100.00;62900.06;4910544;29;20494;-77
2022/11/18 16:08:48;;;;;;;11.38;10.77;;;;;;;-143.83;100.00;62900.06;4927396;29;20111;-75
2022/11/18 16:14:05;;;;;;;10.18;9.68;;;;;;;-143.83;100.00;62900.06;4919960;29;20047;-76
2022/11/18 16:16:33;;;;;;;12.75;12.00;;;;;;;-143.83;100.00;62900.06;4919396;29;20089;-78
2022/11/18 16:19:04;;;;;;;11.07;10.48;;;;;;;-143.83;100.00;62900.06;4909124;29;20119;-76
2022/11/18 16:21:35;;;;;;;10.48;9.98;;;;;;;-143.83;100.00;62900.06;4906912;29;20462;-75
2022/11/18 16:24:03;;;;;;;10.23;9.73;;;;;;;-143.83;100.00;62900.06;4920562;29;20044;-76
2022/11/18 16:26:30;;;;;;;10.48;9.98;;;;;;;-143.83;100.00;62900.06;4930220;29;20024;-76
2022/11/18 16:28:56;;;;;;;10.85;10.25;;;;;;;-143.83;100.00;62900.06;4920225;29;20075;-75
2022/11/18 16:31:40;;;;;;;10.48;9.98;;;;;;;-143.83;100.00;62900.06;4920557;29;20068;-75
2022/11/18 16:34:14;;;;;;;10.90;10.30;;;;;;;-143.83;100.00;62900.06;4919290;29;20375;-75
2022/11/18 16:36:42;;;;;;;11.20;10.60;;;;;;;-143.83;100.00;62900.06;4903766;29;20075;-77
2022/11/18 16:39:22;;;;;;;11.02;10.43;;;;;;;-143.83;100.00;62900.06;4928772;29;20024;-78
2022/11/18 16:41:49;;;;;;;10.52;10.02;;;;;;;-143.83;100.00;62900.06;4921844;29;20064;-81
2022/11/18 16:44:16;;;;;;;10.55;10.05;;;;;;;-143.83;100.00;62900.06;4910064;29;20585;-77
2022/11/18 16:46:45;;;;;;;10.30;9.80;;;;;;;-143.83;100.00;62900.06;4925125;29;20056;-78
2022/11/18 16:49:13;;;;;;;10.60;10.10;;;;;;;-143.83;100.00;62900.06;4928293;29;20063;-79
2022/11/18 16:51:41;;;;;;;10.40;9.90;;;;;;;-143.83;100.00;62900.06;4898155;29;20131;-76
2022/11/18 16:54:14;;;;;;;11.60;11.00;;;;;;;-143.83;100.00;62900.06;4929273;29;20084;-78
2022/11/18 16:56:40;;;;;;;10.90;10.30;;;;;;;-143.83;100.00;62900.06;4923650;29;20308;-73
2022/11/18 16:59:11;;;;;;;11.00;10.40;;;;;;;-143.83;100.00;62900.06;4924188;29;20542;-75
2022/11/18 17:01:38;;;;;;;10.60;10.10;;;;;;;-143.83;100.00;62900.06;4923923;29;20187;-77
2022/11/18 17:04:05;;;;;;;10.45;9.95;;;;;;;-143.83;100.00;62900.06;4923444;29;20059;-74
2022/11/18 17:06:31;;;;;;;11.15;10.55;;;;;;;-143.83;100.00;62900.06;4921024;29;20119;-72
2022/11/18 17:08:57;;;;;;;10.38;9.88;;;;;;;-143.83;100.00;62900.06;4922220;29;20028;-74
2022/11/18 17:11:23;;;;;;;11.40;10.80;;;;;;;-143.83;100.00;62900.06;4922082;29;20028;-74
2022/11/18 17:13:49;;;;;;;10.50;10.00;;;;;;;-143.83;100.00;62900.06;4913640;29;20062;-72
2022/11/18 17:16:19;;;;;;;11.30;10.70;;;;;;;-143.83;100.00;62900.06;4922882;29;20119;-72
2022/11/18 17:18:44;;;;;;;10.00;9.50;;;;;;;-143.83;100.00;62900.06;4926937;29;20031;-74
2022/11/18 17:21:13;;;;;;;10.50;10.00;;;;;;;-143.83;100.00;62900.06;4932375;29;20462;-74
2022/11/18 17:23:42;;;;;;;10.00;9.50;;;;;;;-143.83;100.00;62900.06;4925114;29;20099;-73
2022/11/18 17:26:07;;;;;;;10.50;10.00;;;;;;;-143.83;100.00;62900.06;4921670;29;20058;-69
2022/11/18 17:28:35;;;;;;;10.82;10.27;;;;;;;-143.83;100.00;62900.06;4928563;29;20495;-71
2022/11/18 17:31:18;;;;;;;11.25;10.65;;;;;;;-143.83;100.00;62900.06;4904733;29;20028;-71
2022/11/18 17:33:45;;;;;;;10.00;9.50;;;;;;;-143.83;100.00;62900.06;4923854;29;20039;-71
2022/11/18 17:36:13;;;;;;;11.07;10.48;;;;;;;-143.83;100.00;62900.06;4925273;29;20718;-71
2022/11/18 17:38:41;;;;;;;11.45;10.85;;;;;;;-143.83;100.00;62900.06;4908267;29;20023;-70
2022/11/18 17:41:09;;;;;;;11.60;11.00;;;;;;;-143.83;100.00;62900.06;4920305;29;20420;-72
2022/11/18 17:43:35;;;;;;;10.85;10.32;;;;;;;-143.83;100.00;62900.06;4922579;29;20031;-71
2022/11/18 17:46:01;;;;;;;10.10;9.60;;;;;;;-143.83;100.00;62900.06;4923802;29;20047;-74
2022/11/18 17:48:28;;;;;;;10.05;9.55;;;;;;;-143.83;100.00;62900.06;4926205;29;20160;-71
2022/11/18 17:51:01;;;;;;;11.20;10.60;;;;;;;-143.83;100.00;62900.06;4928930;29;20024;-70
2022/11/18 17:53:27;;;;;;;10.85;10.35;;;;;;;-143.83;100.00;62900.06;4927216;29;20483;-72
2022/11/18 17:55:53;;;;;;;11.05;10.45;;;;;;;-143.83;100.00;62900.06;4908797;29;20118;-70
2022/11/18 17:58:19;;;;;;;10.70;10.20;;;;;;;-143.83;100.00;62900.06;4927741;29;20075;-71
2022/11/18 18:00:44;;;;;;;10.45;9.95;;;;;;;-143.83;100.00;62900.06;4910949;29;20039;-71
2022/11/18 18:03:10;;;;;;;9.90;9.40;;;;;;;-143.83;100.00;62900.06;4927494;29;20484;-73
2022/11/18 18:05:37;;;;;;;10.43;9.93;;;;;;;-143.83;100.00;62900.06;4915675;29;20091;-72
2022/11/18 18:08:05;;;;;;;10.07;9.57;;;;;;;-143.83;100.00;62900.06;4924469;29;20390;-70
2022/11/18 18:10:30;;;;;;;10.32;9.82;;;;;;;-143.83;100.00;62900.06;4913535;29;20036;-70
2022/11/18 18:15:39;;;;;;;10.10;9.60;;;;;;;-143.83;100.00;62900.06;4928346;29;20218;-70
2022/11/18 18:18:05;;;;;;;11.05;10.45;;;;;;;-143.83;100.00;62900.06;4924587;29;20126;-72
2022/11/18 18:20:32;;;;;;;10.55;10.05;;;;;;;-143.83;100.00;62900.06;4929422;29;20024;-71
2022/11/18 18:22:58;;;;;;;9.70;9.30;;;;;;;-143.83;100.00;62900.06;4925384;29;20372;-72
2022/11/18 18:25:24;;;;;;;11.40;10.80;;;;;;;-143.83;100.00;62900.06;4915651;29;20055;-71
2022/11/18 18:27:49;;;;;;;10.00;9.52;;;;;;;-143.83;100.00;62900.06;4930434;29;20036;-70
2022/11/18 18:30:15;;;;;;;10.80;10.27;;;;;;;-143.83;100.00;62900.06;4927625;29;20035;-70
2022/11/18 18:32:42;;;;;;;10.38;9.88;;;;;;;-143.83;100.00;62900.06;4925451;29;20024;-71
2022/11/18 18:35:08;;;;;;;10.35;9.85;;;;;;;-143.83;100.00;62900.06;4924780;29;20107;-72
2022/11/18 18:37:34;;;;;;;11.25;10.65;;;;;;;-143.83;100.00;62900.06;4912008;29;20079;-71
2022/11/18 18:40:00;;;;;;;10.32;9.82;;;;;;;-143.83;100.00;62900.06;4927035;29;20126;-71
2022/11/18 18:42:26;;;;;;;9.88;9.38;;;;;;;-143.83;100.00;62900.06;4927051;29;20134;-71
2022/11/18 18:47:35;;;;;;;10.10;9.60;;;;;;;-143.83;100.00;62900.06;4931389;29;20044;-72
2022/11/18 18:50:01;;;;;;;10.40;9.90;;;;;;;-143.83;100.00;62900.06;4934026;29;20032;-71
2022/11/18 18:52:26;;;;;;;11.40;10.80;;;;;;;-143.83;100.00;62900.06;4907943;29;20096;-70
2022/11/18 18:54:53;;;;;;;11.30;10.70;;;;;;;-143.83;100.00;62900.06;4928774;29;20050;-71
2022/11/18 18:57:19;;;;;;;10.38;9.88;;;;;;;-143.83;100.00;62900.06;4928079;29;20062;-72
2022/11/18 18:59:44;;;;;;;9.50;9.10;;;;;;;-143.83;100.00;62900.06;4928783;29;20439;-72
2022/11/18 19:02:13;;;;;;;9.88;9.38;;;;;;;-143.83;100.00;62900.06;4926701;29;20098;-71
2022/11/18 19:04:38;;;;;;;10.20;9.70;;;;;;;-143.83;100.00;62900.06;4929632;29;20035;-71
2022/11/18 19:07:04;;;;;;;9.80;9.38;;;;;;;-143.83;100.00;62900.06;4929038;29;20372;-72
2022/11/18 19:09:33;;;;;;;10.90;10.40;;;;;;;-143.83;100.00;62900.06;4914432;29;20047;-71
2022/11/18 19:14:45;;;;;;;9.98;9.48;;;;;;;-143.83;100.00;62900.06;4924875;29;20095;-71
2022/11/18 19:17:11;;;;;;;10.52;10.02;;;;;;;-143.83;100.00;62900.06;4929360;29;20067;-71
2022/11/18 19:22:22;;;;;;;10.25;9.75;;;;;;;-143.83;100.00;62900.06;4930531;29;20480;-71
2022/11/18 19:24:48;;;;;;;10.85;10.35;;;;;;;-143.83;100.00;62900.06;4926237;29;20028;-71
2022/11/18 19:27:13;;;;;;;10.98;10.48;;;;;;;-143.83;100.00;62900.06;4920635;29;20024;-71
2022/11/18 19:29:38;;;;;;;10.82;10.32;;;;;;;-143.83;100.00;62900.06;4919561;29;20039;-71
2022/11/18 19:32:04;;;;;;;10.60;10.10;;;;;;;-143.83;100.00;62900.06;4925424;29;20488;-71
2022/11/18 19:34:30;;;;;;;10.88;10.38;;;;;;;-143.83;100.00;62900.06;4926040;29;20415;-71
2022/11/18 19:36:55;;;;;;;10.30;9.80;;;;;;;-143.83;100.00;62900.06;4911368;29;20059;-72
2022/11/18 19:39:20;;;;;;;9.93;9.48;;;;;;;-143.83;100.00;62900.06;4910155;29;20027;-72
2022/11/18 19:41:46;;;;;;;10.23;9.73;;;;;;;-143.83;100.00;62900.06;4911642;29;20539;-70
2022/11/18 19:44:11;;;;;;;10.73;10.23;;;;;;;-143.83;100.00;62900.06;4925089;29;20032;-70
2022/11/18 19:46:37;;;;;;;10.77;10.27;;;;;;;-143.83;100.00;62900.06;4929111;29;20487;-71
2022/11/18 19:49:03;;;;;;;10.15;9.65;;;;;;;-143.83;100.00;62900.06;4933102;29;20051;-71
2022/11/18 19:51:29;;;;;;;10.20;9.70;;;;;;;-143.83;100.00;62900.06;4912576;29;20032;-71
2022/11/18 19:53:55;;;;;;;11.68;11.07;;;;;;;-143.83;100.00;62900.06;4923803;29;20023;-71
2022/11/18 19:56:20;;;;;;;10.68;10.18;;;;;;;-143.83;100.00;62900.06;4930654;29;20031;-70
2022/11/18 19:58:49;;;;;;;10.00;9.50;;;;;;;-143.83;100.00;62900.06;4927070;29;20038;-71
2022/11/18 20:01:26;;;;;;;11.45;10.85;;;;;;;-143.83;100.00;62900.06;4922684;29;20023;-71
2022/11/18 20:03:57;;;;;;;10.90;10.40;;;;;;;-143.83;100.00;62900.06;4928015;29;20032;-70
2022/11/18 20:06:24;;;;;;;10.15;9.65;;;;;;;-143.83;100.00;62900.06;4925807;29;20036;-71
2022/11/18 20:08:51;;;;;;;10.77;10.27;;;;;;;-143.83;100.00;62900.06;4927225;29;20535;-71
2022/11/18 20:11:18;;;;;;;10.40;9.90;;;;;;;-143.83;100.00;62900.06;4929278;29;20659;-70
2022/11/18 20:13:44;;;;;;;10.15;9.65;;;;;;;-143.83;100.00;62900.06;4920462;29;20134;-71
2022/11/18 20:16:14;;;;;;;10.77;10.27;;;;;;;-143.83;100.00;62900.06;4927152;29;20035;-71
2022/11/18 20:18:41;;;;;;;9.90;9.45;;;;;;;-143.83;100.00;62900.06;4928081;29;20525;-71
2022/11/18 20:21:08;;;;;;;10.48;9.98;;;;;;;-143.83;100.00;62900.06;4925104;29;20028;-71
2022/11/18 20:23:35;;;;;;;10.55;10.05;;;;;;;-143.83;100.00;62900.06;4923437;29;20070;-71
2022/11/18 20:26:06;;;;;;;10.23;9.73;;;;;;;-143.83;100.00;62900.06;4927776;29;20039;-70
2022/11/18 20:28:33;;;;;;;10.63;10.13;;;;;;;-143.83;100.00;62900.06;4926687;29;20492;-71
2022/11/18 20:31:02;;;;;;;10.70;10.20;;;;;;;-143.83;100.00;62900.06;4925748;29;20113;-70
2022/11/18 20:33:28;;;;;;;10.50;10.00;;;;;;;-143.83;100.00;62900.06;4907733;29;20074;-71
2022/11/18 20:35:54;;;;;;;10.35;9.85;;;;;;;-143.83;100.00;62900.06;4929184;29;20028;-70
2022/11/18 20:38:19;;;;;;;10.32;9.82;;;;;;;-143.83;100.00;62900.06;4923111;29;20044;-70
2022/11/18 20:40:45;;;;;;;10.65;10.15;;;;;;;-143.83;100.00;62900.06;4927674;29;20119;-71
2022/11/18 20:43:11;;;;;;;10.55;10.05;;;;;;;-143.83;100.00;62900.06;4910281;29;20059;-71
2022/11/18 20:45:42;;;;;;;10.10;9.60;;;;;;;-143.83;100.00;62900.06;4916415;29;20479;-71
2022/11/18 20:48:08;;;;;;;9.80;9.32;;;;;;;-143.83;100.00;62900.06;4922472;29;20114;-70
2022/11/18 20:50:37;;;;;;;9.60;9.20;;;;;;;-143.83;100.00;62900.06;4926831;29;20028;-71
2022/11/18 20:53:04;;;;;;;9.90;9.45;;;;;;;-143.83;100.00;62900.06;4918742;29;20060;-71
2022/11/18 20:55:33;;;;;;;10.13;9.63;;;;;;;-143.83;100.00;62900.06;4922724;29;20032;-70
2022/11/18 20:57:59;;;;;;;10.38;9.88;;;;;;;-143.83;100.00;62900.06;4925854;29;20032;-72
2022/11/18 21:00:25;;;;;;;10.38;9.88;;;;;;;-143.83;100.00;62900.06;4908079;29;20391;-72
2022/11/18 21:02:50;;;;;;;10.77;10.27;;;;;;;-143.83;100.00;62900.06;4926732;29;20058;-72
2022/11/18 21:05:16;;;;;;;10.68;10.18;;;;;;;-143.83;100.00;62900.06;4923643;29;20028;-71
2022/11/18 21:07:41;;;;;;;10.30;9.80;;;;;;;-143.83;100.00;62900.06;4921507;29;20380;-72
2022/11/18 21:10:07;;;;;;;10.50;10.00;;;;;;;-143.83;100.00;62900.06;4910181;29;20087;-71
2022/11/18 21:12:32;;;;;;;10.10;9.60;;;;;;;-143.83;100.00;62900.06;4915877;29;20023;-71
2022/11/18 21:14:58;;;;;;;9.88;9.40;;;;;;;-143.83;100.00;62900.06;4926669;29;20114;-72
2022/11/18 21:17:23;;;;;;;10.63;10.13;;;;;;;-143.83;100.00;62900.06;4924974;29;20056;-72
2022/11/18 21:19:50;;;;;;;10.02;9.52;;;;;;;-143.83;100.00;62900.06;4923611;29;20596;-71
2022/11/18 21:22:16;;;;;;;10.20;9.70;;;;;;;-143.83;100.00;62900.06;4918323;29;20031;-72
2022/11/18 21:24:41;;;;;;;9.70;9.30;;;;;;;-143.83;100.00;62900.06;4907393;29;20056;-72
2022/11/18 21:27:07;;;;;;;10.18;9.68;;;;;;;-143.83;100.00;62900.06;4906688;29;20119;-72
2022/11/18 21:29:33;;;;;;;9.93;9.43;;;;;;;-143.83;100.00;62900.06;4905192;29;20088;-71
2022/11/18 21:32:01;;;;;;;10.20;9.70;;;;;;;-143.83;100.00;62900.06;4927379;29;20083;-70
2022/11/18 21:34:27;;;;;;;10.18;9.68;;;;;;;-143.83;100.00;62900.06;4905525;29;20028;-68
2022/11/18 21:36:53;;;;;;;9.45;9.05;;;;;;;-143.83;100.00;62900.06;4925422;29;20103;-70
2022/11/18 21:39:18;;;;;;;10.02;9.52;;;;;;;-143.83;100.00;62900.06;4926777;29;20027;-70
2022/11/18 21:41:45;;;;;;;10.73;10.20;;;;;;;-143.83;100.00;62900.06;4922640;29;20023;-71
2022/11/18 21:44:12;;;;;;;10.32;9.82;;;;;;;-143.83;100.00;62900.06;4923316;29;20027;-69
2022/11/18 21:46:40;;;;;;;9.90;9.40;;;;;;;-143.83;100.00;62900.06;4924512;29;20102;-70
2022/11/18 21:49:06;;;;;;;9.52;9.13;;;;;;;-143.83;100.00;62900.06;4918720;29;20023;-69
2022/11/18 21:51:33;;;;;;;9.88;9.40;;;;;;;-143.83;100.00;62900.06;4923892;29;20028;-69
2022/11/18 21:54:00;;;;;;;9.95;9.45;;;;;;;-143.83;100.00;62900.06;4925202;29;20024;-70
2022/11/18 21:56:29;;;;;;;9.45;9.05;;;;;;;-143.83;100.00;62900.06;4904148;29;20063;-69
2022/11/18 21:58:56;;;;;;;9.73;9.30;;;;;;;-143.83;100.00;62900.06;4924469;29;20051;-69
2022/11/18 22:01:25;;;;;;;10.10;9.60;;;;;;;-143.83;100.00;62900.06;4921540;29;20019;-70
2022/11/18 22:03:56;;;;;;;9.70;9.30;;;;;;;-143.83;100.00;62900.06;4904064;29;20569;-70
2022/11/18 22:06:24;;;;;;;10.00;9.50;;;;;;;-143.83;100.00;62900.06;4923485;29;20036;-69
2022/11/18 22:08:50;;;;;;;9.70;9.30;;;;;;;-143.83;100.00;62900.06;4923163;29;20047;-69
2022/11/18 22:11:16;;;;;;;9.40;9.00;;;;;;;-143.83;100.00;62900.06;4930341;29;20368;-69
2022/11/18 22:13:42;;;;;;;10.20;9.70;;;;;;;-143.83;100.00;62900.06;4924408;29;20031;-71
2022/11/18 22:16:14;;;;;;;9.75;9.30;;;;;;;-143.83;100.00;62900.06;4909807;29;20040;-70
2022/11/18 22:18:42;;;;;;;9.45;9.05;;;;;;;-143.83;100.00;62900.06;4926190;29;20113;-70
2022/11/18 22:21:16;;;;;;;10.05;9.55;;;;;;;-143.83;100.00;62900.06;4915452;29;20031;-70
2022/11/18 22:23:42;;;;;;;;;;;;;;;-143.83;100.00;62900.06;4923019;29;21061;-70
2022/11/18 22:26:10;;;;;;;9.77;9.30;;;;;;;-143.83;100.00;62900.06;4920275;29;19985;-71
2022/11/18 22:28:36;;;;;;;9.60;9.20;;;;;;;-143.83;100.00;62900.06;4914797;29;20076;-69
2022/11/18 22:31:03;;;;;;;9.50;9.10;;;;;;;-143.83;100.00;62900.06;4925972;29;20091;-70
2022/11/18 22:33:32;;;;;;;9.38;8.98;;;;;;;-143.83;100.00;62900.06;4924229;29;20055;-70
2022/11/18 22:36:03;;;;;;;9.88;9.38;;;;;;;-143.83;100.00;62900.06;4910501;29;20452;-70
2022/11/18 22:38:29;;;;;;;9.90;9.40;;;;;;;-143.83;100.00;62900.06;4914619;29;20087;-70
2022/11/18 22:41:03;;;;;;;9.40;9.00;;;;;;;-143.83;100.00;62900.06;4926230;29;20024;-70
2022/11/18 22:43:30;;;;;;;9.20;8.80;;;;;;;-143.83;100.00;62900.06;4913831;29;20514;-70
2022/11/18 22:46:05;;;;;;;10.02;9.52;;;;;;;-143.83;100.00;62900.06;4907861;29;20427;-70
2022/11/18 22:48:30;;;;;;;9.30;8.90;;;;;;;-143.83;100.00;62900.06;4918112;29;20474;-69
2022/11/18 22:51:01;;;;;;;9.77;9.27;;;;;;;-143.83;100.00;62900.06;4931365;29;20038;-70
2022/11/18 22:53:28;;;;;;;9.30;8.90;;;;;;;-143.83;100.00;62900.06;4931366;29;20028;-70
2022/11/18 22:56:11;;;;;;;9.13;8.73;;;;;;;-143.83;100.00;62900.06;4911071;29;20051;-70
2022/11/18 22:58:37;;;;;;;9.50;9.10;;;;;;;-143.83;100.00;62900.06;4929501;29;20087;-71
2022/11/18 23:01:09;;;;;;;9.63;9.23;;;;;;;-143.83;100.00;62900.06;4929688;29;20427;-70
2022/11/18 23:03:35;;;;;;;9.30;8.90;;;;;;;-143.83;100.00;62900.06;4924215;29;20028;-69
2022/11/18 23:06:01;;;;;;;9.60;9.20;;;;;;;-143.83;100.00;62900.06;4924816;29;20055;-70
2022/11/18 23:08:30;;;;;;;9.98;9.48;;;;;;;-143.83;100.00;62900.06;4925200;29;20028;-71
2022/11/18 23:11:13;;;;;;;9.50;9.10;;;;;;;-143.83;100.00;62900.06;4913124;29;20036;-71
2022/11/18 23:13:54;;;;;;;9.50;9.10;;;;;;;-143.83;100.00;62900.06;4927992;29;20024;-71
2022/11/18 23:16:21;;;;;;;9.90;9.40;;;;;;;-143.83;100.00;62900.06;4929891;29;20032;-70
2022/11/18 23:18:47;;;;;;;9.85;9.35;;;;;;;-143.83;100.00;62900.06;4912391;29;20108;-70
2022/11/18 23:21:13;;;;;;;9.35;8.95;;;;;;;-143.83;100.00;62900.06;4927642;29;20566;-70
2022/11/18 23:23:38;;;;;;;9.55;9.15;;;;;;;-143.83;100.00;62900.06;4907363;29;20047;-71
2022/11/18 23:26:13;;;;;;;9.85;9.40;;;;;;;-143.83;100.00;62900.06;4932201;29;20499;-70
2022/11/18 23:28:39;;;;;;;9.63;9.23;;;;;;;-143.83;100.00;62900.06;4927022;29;20041;-69
2022/11/18 23:31:06;;;;;;;9.75;9.32;;;;;;;-143.83;100.00;62900.06;4932615;29;20028;-69
2022/11/18 23:33:32;;;;;;;10.15;9.65;;;;;;;-143.83;100.00;62900.06;4929734;29;20035;-69
2022/11/18 23:35:57;;;;;;;10.15;9.65;;;;;;;-143.83;100.00;62900.06;4926791;29;20494;-70
2022/11/18 23:38:23;;;;;;;10.00;9.50;;;;;;;-143.83;100.00;62900.06;4928808;29;20034;-70
2022/11/18 23:40:59;;;;;;;9.75;9.32;;;;;;;-143.83;100.00;62900.06;4927791;29;20047;-70
2022/11/18 23:43:26;;;;;;;9.38;8.98;;;;;;;-143.83;100.00;62900.06;4928815;29;20024;-70
2022/11/18 23:45:52;;;;;;;9.73;9.32;;;;;;;-143.83;100.00;62900.06;4922549;29;20054;-70
2022/11/18 23:48:19;;;;;;;10.27;9.77;;;;;;;-143.83;100.00;62900.06;4924692;29;20442;-69
2022/11/18 23:51:00;;;;;;;9.55;9.15;;;;;;;-143.83;100.00;62900.06;4925018;29;20024;-69
2022/11/18 23:53:27;;;;;;;9.27;8.88;;;;;;;-143.83;100.00;62900.06;4922309;29;20028;-69
2022/11/18 23:55:53;;;;;;;9.50;9.10;;;;;;;-143.83;100.00;62900.06;4926031;29;20028;-68
2022/11/18 23:58:19;;;;;;;9.52;9.13;;;;;;;-143.83;100.00;62900.06;4924765;29;20023;-70
